Time;durP1;ratioP1;P1;durP2;ratioP2;P2;SDS_P1;SDS_P2;PMS_P1;PMS_P2;Temp;Humidity;BMP_temperature;BMP_pressure;BME280_temperature;BME280_humidity;BME280_pressure;Samples;Min_cycle;Max_cycle;Signal;HPM_P1;HPM_P2
2023/05/17 00:01:55;;;;;;;3.37;2.00;;;;;;;6.67;72.27;95947.66;6245461;22;20170;-85
2023/05/17 00:04:20;;;;;;;3.53;1.80;;;;;;;6.67;72.81;95955.41;6244280;23;20164;-85
2023/05/17 00:06:46;;;;;;;6.47;1.90;;;;;;;6.62;73.27;95959.25;6243811;23;20489;-86
2023/05/17 00:09:11;;;;;;;2.43;1.20;;;;;;;6.58;72.84;95960.41;6218499;23;20168;-85
2023/05/17 00:11:36;;;;;;;7.07;1.60;;;;;;;6.61;72.76;95967.91;6219075;23;20242;-83
2023/05/17 00:14:01;;;;;;;3.60;1.80;;;;;;;6.59;72.77;95968.03;6245154;23;20182;-83
2023/05/17 00:16:27;;;;;;;4.73;2.00;;;;;;;6.56;72.92;95964.88;6244628;23;20550;-84
2023/05/17 00:18:52;;;;;;;7.23;1.87;;;;;;;6.51;73.25;95954.88;6220983;23;20160;-86
2023/05/17 00:21:17;;;;;;;4.07;1.57;;;;;;;6.52;73.48;95965.09;6220164;23;20649;-84
2023/05/17 00:23:43;;;;;;;4.33;1.80;;;;;;;6.51;73.23;95963.44;6245615;23;20160;-84
2023/05/17 00:26:08;;;;;;;7.13;1.60;;;;;;;6.43;73.94;95960.59;6219539;23;20172;-85
2023/05/17 00:28:33;;;;;;;7.17;2.07;;;;;;;6.38;74.33;95961.88;6220105;23;20176;-83
2023/05/17 00:30:59;;;;;;;5.87;1.77;;;;;;;6.36;74.38;95959.41;6221273;23;20176;-85
2023/05/17 00:33:24;;;;;;;5.63;1.93;;;;;;;6.32;74.91;95964.91;6245900;23;20209;-83
2023/05/17 00:35:50;;;;;;;4.50;1.60;;;;;;;6.30;74.18;95969.34;6244712;23;20228;-84
2023/05/17 00:38:15;;;;;;;4.43;1.70;;;;;;;6.23;74.92;95974.94;6219462;23;20157;-84
2023/05/17 00:40:41;;;;;;;6.87;1.80;;;;;;;6.16;75.53;95966.00;6219568;23;20960;-82
2023/05/17 00:43:07;;;;;;;5.73;2.00;;;;;;;6.06;76.50;95966.78;6246739;23;20145;-83
2023/05/17 00:45:32;;;;;;;2.97;2.20;;;;;;;5.93;76.58;95970.25;6218921;23;20243;-85
2023/05/17 00:47:57;;;;;;;2.17;1.60;;;;;;;5.95;76.80;95977.84;6217972;23;20161;-85
2023/05/17 00:50:23;;;;;;;3.83;1.83;;;;;;;5.89;77.26;95970.53;6243623;22;20213;-84
2023/05/17 00:52:48;;;;;;;3.17;2.00;;;;;;;5.85;77.14;95980.22;6217979;23;20173;-83
2023/05/17 00:55:14;;;;;;;3.93;1.73;;;;;;;5.77;77.42;95976.56;6243436;23;20164;-85
2023/05/17 00:57:39;;;;;;;5.43;2.17;;;;;;;5.73;77.70;95978.50;6218670;23;20565;-85
2023/05/17 01:00:05;;;;;;;3.43;1.80;;;;;;;5.74;77.81;95974.16;6220021;23;20232;-86
2023/05/17 01:02:30;;;;;;;4.77;2.00;;;;;;;5.73;78.29;95982.84;6245741;23;20161;-87
2023/05/17 01:04:56;;;;;;;5.30;1.93;;;;;;;5.61;78.47;95977.63;6220086;23;20153;-84
2023/05/17 01:07:21;;;;;;;6.63;2.37;;;;;;;5.62;79.11;95981.00;6219424;23;20161;-86
2023/05/17 01:09:47;;;;;;;3.10;1.60;;;;;;;5.64;78.50;95984.28;6220119;22;20158;-84
2023/05/17 01:12:27;;;;;;;5.90;2.10;;;;;;;5.65;78.83;95989.38;6220415;23;20169;-85
2023/05/17 01:15:38;;;;;;;4.23;1.67;;;;;;;5.64;79.15;95992.84;6220032;23;20157;-86
2023/05/17 01:18:48;;;;;;;5.20;1.50;;;;;;;5.58;79.42;95995.88;6240211;23;20152;-86
2023/05/17 01:21:54;;;;;;;4.40;1.73;;;;;;;5.55;79.27;95995.25;6240551;22;20184;-86
2023/05/17 01:24:29;;;;;;;4.50;1.63;;;;;;;5.42;80.18;95995.28;6217551;23;20157;-84
2023/05/17 01:26:55;;;;;;;2.50;1.60;;;;;;;5.38;80.50;95997.22;6219617;23;20163;-86
2023/05/17 01:29:24;;;;;;;6.83;1.80;;;;;;;5.33;80.30;95995.91;6221268;23;20168;-86
2023/05/17 01:31:50;;;;;;;4.03;1.80;;;;;;;5.33;80.27;96001.88;6221172;23;20204;-85
2023/05/17 01:34:23;;;;;;;2.93;1.47;;;;;;;5.38;80.08;95999.78;6221475;23;20258;-85
2023/05/17 01:36:49;;;;;;;4.60;2.00;;;;;;;5.39;80.06;95996.31;6219997;23;20188;-85
2023/05/17 01:39:14;;;;;;;4.13;1.67;;;;;;;5.46;79.78;96006.19;6220331;23;20158;-86
2023/05/17 01:41:43;;;;;;;8.93;1.97;;;;;;;5.48;79.81;96002.59;6219958;23;20177;-85
2023/05/17 01:44:23;;;;;;;5.57;1.97;;;;;;;5.52;79.79;96004.00;6220770;23;20287;-85
2023/05/17 01:46:53;;;;;;;2.90;1.90;;;;;;;5.55;79.63;96003.78;6219857;23;20157;-86
2023/05/17 01:49:28;;;;;;;2.50;2.00;;;;;;;5.58;79.25;95995.88;6219714;23;20583;-86
2023/05/17 01:51:58;;;;;;;5.17;2.00;;;;;;;5.52;79.73;96005.78;6220297;23;20187;-85
2023/05/17 01:54:29;;;;;;;5.90;2.00;;;;;;;5.56;79.55;96002.84;6245870;22;20179;-86
2023/05/17 01:56:56;;;;;;;5.27;2.10;;;;;;;5.57;79.30;96001.13;6244545;23;20149;-85
2023/05/17 01:59:24;;;;;;;2.23;1.60;;;;;;;5.55;79.48;96008.13;6220420;23;20158;-86
2023/05/17 02:01:54;;;;;;;5.50;1.93;;;;;;;5.51;80.01;96009.28;6219140;23;20177;-86
2023/05/17 02:04:20;;;;;;;3.90;2.00;;;;;;;5.56;79.86;96002.84;6219436;23;20152;-85
2023/05/17 02:06:45;;;;;;;1.60;1.50;;;;;;;5.56;80.06;96007.19;6219095;23;20161;-86
2023/05/17 02:09:10;;;;;;;10.23;2.37;;;;;;;5.52;79.76;96013.50;6243882;23;20741;-85
2023/05/17 02:11:36;;;;;;;4.47;1.97;;;;;;;5.51;80.09;96004.13;6219425;23;20307;-85
2023/05/17 02:14:01;;;;;;;9.37;2.20;;;;;;;5.46;79.95;96017.31;6245215;23;20169;-84
2023/05/17 02:16:26;;;;;;;4.83;2.37;;;;;;;5.47;80.21;96008.63;6234546;23;20203;-84
2023/05/17 02:18:52;;;;;;;4.63;2.00;;;;;;;5.41;79.90;96006.50;6239513;23;20678;-85
2023/05/17 02:21:17;;;;;;;3.73;2.37;;;;;;;5.57;79.29;96006.28;6264420;22;20193;-86
2023/05/17 02:23:43;;;;;;;4.07;2.10;;;;;;;5.56;79.12;96007.19;6238530;23;20158;-84
2023/05/17 02:26:08;;;;;;;7.50;1.90;;;;;;;5.57;79.04;96004.53;6263619;23;20157;-85
2023/05/17 02:28:33;;;;;;;3.10;2.07;;;;;;;5.55;78.92;96006.38;6239021;23;20172;-85
2023/05/17 02:30:58;;;;;;;6.33;1.97;;;;;;;5.61;78.99;96000.81;6266304;22;20181;-84
2023/05/17 02:33:24;;;;;;;3.93;1.90;;;;;;;5.56;79.24;96007.19;6266731;23;20173;-83
2023/05/17 02:35:52;;;;;;;4.00;1.87;;;;;;;5.59;78.84;96001.84;6266359;23;20164;-84
2023/05/17 02:38:17;;;;;;;4.47;2.00;;;;;;;5.60;79.20;96012.03;6242048;23;20141;-84
2023/05/17 02:40:42;;;;;;;4.87;1.53;;;;;;;5.59;79.08;96019.88;6240998;23;20177;-83
2023/05/17 02:43:08;;;;;;;3.10;1.90;;;;;;;5.58;78.96;96020.81;6266412;23;20157;-84
2023/05/17 02:45:33;;;;;;;6.33;2.10;;;;;;;5.59;78.82;96018.13;6241461;23;20187;-84
2023/05/17 02:47:58;;;;;;;2.40;1.60;;;;;;;5.57;79.23;96016.59;6239775;23;20599;-85
2023/05/17 02:50:24;;;;;;;6.60;2.33;;;;;;;5.53;79.01;96017.72;6241090;23;20181;-84
2023/05/17 02:52:49;;;;;;;4.60;1.93;;;;;;;5.56;79.06;96012.34;6240790;23;20192;-84
2023/05/17 02:55:15;;;;;;;4.20;2.13;;;;;;;5.53;79.30;96020.28;6266765;23;20217;-85
2023/05/17 02:57:40;;;;;;;5.93;2.23;;;;;;;5.49;79.82;96016.28;6240030;23;20165;-85
2023/05/17 03:00:08;;;;;;;9.20;2.00;;;;;;;5.48;79.72;96014.63;6229458;23;20502;-85
2023/05/17 03:02:33;;;;;;;5.10;1.90;;;;;;;5.42;79.97;96010.72;6252183;23;20168;-86
2023/05/17 03:04:58;;;;;;;5.40;1.90;;;;;;;5.39;79.94;96016.09;6227571;23;20165;-83
2023/05/17 03:07:24;;;;;;;9.17;2.13;;;;;;;5.37;79.84;96018.75;6225827;23;20157;-85
2023/05/17 03:09:49;;;;;;;4.67;1.83;;;;;;;5.34;80.48;96023.31;6251393;22;20157;-86
2023/05/17 03:12:14;;;;;;;3.43;1.97;;;;;;;5.25;80.72;96023.91;6226310;23;20169;-85
2023/05/17 03:14:40;;;;;;;3.37;2.00;;;;;;;5.26;81.44;96030.72;6252088;23;20180;-86
2023/05/17 03:17:05;;;;;;;6.87;2.27;;;;;;;5.23;80.81;96036.09;6225443;23;20501;-85
2023/05/17 03:19:30;;;;;;;5.40;2.37;;;;;;;5.22;80.95;96031.88;6225967;23;20161;-85
2023/05/17 03:21:56;;;;;;;4.50;1.90;;;;;;;5.13;81.66;96027.34;6250953;22;20172;-86
2023/05/17 03:24:21;;;;;;;5.43;2.10;;;;;;;5.10;81.94;96026.59;6225857;23;20157;-83
2023/05/17 03:26:46;;;;;;;3.57;1.90;;;;;;;5.06;82.32;96026.91;6225173;23;20191;-86
2023/05/17 03:29:12;;;;;;;4.97;1.83;;;;;;;5.05;82.62;96033.81;6250806;23;20157;-85
2023/05/17 03:31:37;;;;;;;7.37;2.00;;;;;;;5.08;82.31;96032.78;6225168;23;20184;-85
2023/05/17 03:34:02;;;;;;;5.93;1.77;;;;;;;5.07;81.94;96031.13;6225586;23;20181;-86
2023/05/17 03:36:27;;;;;;;5.50;1.90;;;;;;;5.06;82.20;96035.47;6224970;23;20172;-85
2023/05/17 03:38:53;;;;;;;5.17;2.40;;;;;;;5.05;82.43;96033.00;6224721;23;20599;-86
2023/05/17 03:41:18;;;;;;;5.00;2.33;;;;;;;5.07;82.60;96044.00;6225675;23;20231;-85
2023/05/17 03:43:43;;;;;;;5.87;2.10;;;;;;;5.10;82.21;96044.59;6224923;23;20164;-84
2023/05/17 03:46:09;;;;;;;5.50;2.20;;;;;;;5.07;82.86;96044.81;6249853;23;20157;-85
2023/05/17 03:48:34;;;;;;;4.43;2.07;;;;;;;5.08;82.59;96043.06;6251277;23;20162;-86
2023/05/17 03:50:59;;;;;;;7.03;2.30;;;;;;;5.10;82.57;96049.75;6225967;23;20184;-85
2023/05/17 03:53:25;;;;;;;3.77;1.97;;;;;;;5.14;82.48;96042.69;6225464;23;20177;-86
2023/05/17 03:55:50;;;;;;;5.57;3.40;;;;;;;5.19;82.78;96042.34;6249145;23;20164;-83
2023/05/17 03:58:15;;;;;;;39.50;20.57;;;;;;;5.22;82.33;96049.88;6224900;23;20157;-86
2023/05/17 04:00:41;;;;;;;30.20;15.93;;;;;;;5.25;82.12;96047.91;6225559;23;20185;-85
2023/05/17 04:03:06;;;;;;;17.03;10.40;;;;;;;5.33;82.32;96044.84;6249926;23;20153;-85
2023/05/17 04:05:32;;;;;;;23.07;14.40;;;;;;;5.43;82.29;96050.19;6225132;23;20183;-84
2023/05/17 04:07:57;;;;;;;18.33;11.60;;;;;;;5.45;82.26;96053.47;6225231;23;20662;-86
2023/05/17 04:10:22;;;;;;;16.57;10.20;;;;;;;5.52;82.18;96057.28;6250732;22;20180;-85
2023/05/17 04:12:48;;;;;;;16.73;10.80;;;;;;;5.52;81.74;96063.25;6225390;23;20193;-86
2023/05/17 04:15:14;;;;;;;17.07;11.60;;;;;;;5.59;81.77;96061.94;6225581;23;20157;-85
2023/05/17 04:17:39;;;;;;;12.57;8.70;;;;;;;5.66;81.56;96063.16;6249960;23;20149;-85
2023/05/17 04:20:07;;;;;;;9.63;4.80;;;;;;;5.79;81.35;96073.44;6249877;22;20172;-84
2023/05/17 04:22:33;;;;;;;9.53;4.07;;;;;;;5.86;80.69;96069.50;6248749;23;20157;-87
2023/05/17 04:24:58;;;;;;;13.80;4.67;;;;;;;5.89;80.38;96071.03;6247356;23;20160;-86
2023/05/17 04:27:23;;;;;;;7.30;3.23;;;;;;;5.94;79.41;96075.00;6247077;23;20157;-86
2023/05/17 04:29:49;;;;;;;7.00;2.70;;;;;;;6.06;79.55;96077.66;6247502;22;20495;-84
2023/05/17 04:32:14;;;;;;;4.43;2.70;;;;;;;6.13;79.54;96076.28;6246283;23;20678;-85
2023/05/17 04:34:40;;;;;;;10.07;2.40;;;;;;;6.30;78.89;96075.09;6221046;23;20165;-87
2023/05/17 04:37:05;;;;;;;5.23;3.23;;;;;;;6.25;78.50;96078.00;6219165;23;20161;-87
2023/05/17 04:39:31;;;;;;;5.10;3.30;;;;;;;6.40;78.28;96082.06;6220171;23;20160;-87
2023/05/17 04:41:56;;;;;;;7.67;5.27;;;;;;;6.50;77.63;96090.81;6220114;23;20172;-87
2023/05/17 04:44:21;;;;;;;6.30;5.10;;;;;;;6.60;78.20;96090.16;6219806;23;20157;-87
2023/05/17 04:46:47;;;;;;;6.43;4.53;;;;;;;6.81;77.30;96091.19;6219387;23;20149;-87
2023/05/17 04:49:13;;;;;;;6.07;3.33;;;;;;;6.82;76.14;96093.66;6219585;23;20164;-88
2023/05/17 04:51:38;;;;;;;6.07;2.70;;;;;;;7.04;75.64;96085.16;6219856;23;20194;-87
2023/05/17 04:54:07;;;;;;;4.33;2.87;;;;;;;7.22;75.91;96095.88;6219744;23;20185;-86
2023/05/17 04:56:33;;;;;;;4.60;2.30;;;;;;;7.24;75.13;96103.53;6219963;23;20941;-86
2023/05/17 04:58:59;;;;;;;6.67;2.67;;;;;;;7.20;74.89;96102.13;6221658;23;20157;-87
2023/05/17 05:01:24;;;;;;;6.00;2.77;;;;;;;7.24;75.87;96100.94;6220215;23;20236;-87
2023/05/17 05:03:49;;;;;;;6.33;3.00;;;;;;;7.31;76.28;96107.31;6219062;23;20153;-88
2023/05/17 05:06:15;;;;;;;5.63;3.33;;;;;;;7.41;74.96;96110.84;6219636;23;20161;-87
2023/05/17 05:08:40;;;;;;;6.17;4.27;;;;;;;7.53;75.50;96109.94;6221993;23;20172;-87
2023/05/17 05:11:06;;;;;;;7.00;3.40;;;;;;;7.52;75.07;96110.88;6220568;22;20248;-86
2023/05/17 05:13:31;;;;;;;7.83;2.80;;;;;;;7.60;74.17;96116.31;6220141;23;20181;-87
2023/05/17 05:15:56;;;;;;;10.43;3.07;;;;;;;7.49;74.53;96113.69;6219729;23;20272;-86
2023/05/17 05:18:22;;;;;;;4.80;2.57;;;;;;;7.81;73.84;96128.53;6220415;23;20543;-88
2023/05/17 05:20:47;;;;;;;10.73;3.00;;;;;;;7.93;73.19;96132.78;6219963;23;20176;-86
2023/05/17 05:23:13;;;;;;;8.00;2.70;;;;;;;8.04;73.25;96137.97;6219391;23;20183;-86
2023/05/17 05:25:38;;;;;;;6.37;2.50;;;;;;;8.35;71.46;96140.78;6220937;23;20165;-88
2023/05/17 05:28:04;;;;;;;5.50;2.50;;;;;;;8.40;71.40;96143.84;6219506;23;20157;-88
2023/05/17 05:30:31;;;;;;;5.30;2.60;;;;;;;8.68;69.73;96145.91;6220958;23;20183;-87
2023/05/17 05:32:56;;;;;;;7.60;2.50;;;;;;;8.82;68.48;96141.41;6218494;23;20650;-88
2023/05/17 05:35:27;;;;;;;5.67;2.30;;;;;;;10.18;64.77;96139.59;6218664;23;20161;-86
2023/05/17 05:37:53;;;;;;;6.40;2.80;;;;;;;11.02;60.84;96149.66;6220814;23;20149;-87
2023/05/17 05:40:19;;;;;;;6.70;2.60;;;;;;;11.99;57.36;96149.59;6219308;23;20959;-88
2023/05/17 05:42:58;;;;;;;6.83;3.13;;;;;;;11.77;56.97;96151.56;6220164;23;20467;-88
2023/05/17 05:45:27;;;;;;;7.10;2.40;;;;;;;12.67;53.60;96152.75;6220433;23;20603;-88
2023/05/17 05:48:18;;;;;;;4.93;2.30;;;;;;;14.20;49.43;96159.44;6222065;23;20146;-87
2023/05/17 05:51:10;;;;;;;4.03;2.23;;;;;;;14.39;46.34;96155.78;6218077;23;20240;-88
2023/05/17 05:57:28;;;;;;;8.85;2.55;;;;;;;16.02;42.89;96164.78;6212611;23;21026;-88
2023/05/17 05:59:56;;;;;;;2.20;1.58;;;;;;;16.52;40.91;96166.31;6221712;23;20158;-89
2023/05/17 06:05:55;;;;;;;6.15;2.85;;;;;;;15.40;42.02;96169.69;6199871;23;20611;-88
2023/05/17 06:11:56;;;;;;;5.65;2.33;;;;;;;16.58;39.98;96183.16;6155041;23;20206;-88
2023/05/17 06:15:38;;;;;;;5.25;3.00;;;;;;;13.88;45.63;96183.59;6129581;23;20187;-88
2023/05/17 06:18:11;;;;;;;5.72;2.17;;;;;;;15.74;42.07;96194.94;5979691;24;20189;-87
2023/05/17 06:24:03;;;;;;;;;;;;;;;;;;;;;
2023/05/17 06:26:32;;;;;;;4.70;2.72;;;;;;;16.25;41.07;96192.91;6007054;23;20245;-87
2023/05/17 06:29:26;;;;;;;4.50;2.50;;;;;;;16.67;40.40;96190.81;5984869;23;20173;-87
2023/05/17 06:31:58;;;;;;;4.20;2.50;;;;;;;17.93;38.19;96205.56;5950769;24;20254;-87
2023/05/17 06:34:29;;;;;;;6.38;2.90;;;;;;;15.34;42.78;96199.09;5951736;24;20251;-88
2023/05/17 06:37:18;;;;;;;7.85;2.90;;;;;;;14.08;45.38;96195.47;5949788;24;20168;-87
2023/05/17 06:39:49;;;;;;;5.00;2.77;;;;;;;13.37;49.43;96208.59;5951893;24;20163;-88
2023/05/17 06:42:17;;;;;;;5.60;3.17;;;;;;;12.50;49.90;96201.22;5930611;24;20615;-87
2023/05/17 06:45:21;;;;;;;8.13;3.10;;;;;;;11.42;53.51;96203.34;5975944;23;20620;-87
2023/05/17 06:48:28;;;;;;;4.57;3.30;;;;;;;11.24;54.76;96197.97;6035861;23;20244;-87
2023/05/17 06:50:59;;;;;;;13.80;3.93;;;;;;;10.41;58.09;96197.34;6013424;23;20264;-86
2023/05/17 06:53:26;;;;;;;5.90;2.90;;;;;;;12.38;52.04;96202.38;6067286;23;20190;-87
2023/05/17 06:55:56;;;;;;;4.60;2.73;;;;;;;12.44;52.54;96200.00;6158430;23;20162;-87
2023/05/17 06:58:24;;;;;;;5.60;2.80;;;;;;;12.41;52.99;96191.66;6159371;23;20962;-87
2023/05/17 07:00:50;;;;;;;5.67;3.00;;;;;;;10.35;58.46;96200.50;6157671;23;20191;-87
2023/05/17 07:03:16;;;;;;;8.33;3.10;;;;;;;10.83;57.43;96202.41;6132865;23;20158;-86
2023/05/17 07:05:41;;;;;;;7.00;2.80;;;;;;;11.05;57.82;96197.00;6157427;23;20167;-87
2023/05/17 07:08:07;;;;;;;7.43;3.13;;;;;;;10.26;61.24;96206.47;6170697;23;20164;-86
2023/05/17 07:10:32;;;;;;;6.07;3.40;;;;;;;10.08;61.20;96210.56;6219505;23;20635;-88
2023/05/17 07:13:51;;;;;;;7.07;3.50;;;;;;;11.36;57.31;96209.88;6217881;23;20266;-87
2023/05/17 07:19:55;;;;;;;6.43;3.13;;;;;;;14.37;47.94;96221.25;6182005;23;20178;-87
2023/05/17 07:22:21;;;;;;;8.50;3.10;;;;;;;14.96;46.37;96219.63;6226570;23;20203;-86
2023/05/17 07:24:46;;;;;;;8.80;3.07;;;;;;;13.93;47.95;96222.28;6246027;23;20141;-85
2023/05/17 07:27:12;;;;;;;5.70;3.30;;;;;;;14.02;49.01;96216.97;6220696;23;20599;-87
2023/05/17 07:29:37;;;;;;;5.43;3.50;;;;;;;12.49;50.89;96220.44;6245559;23;20153;-86
2023/05/17 07:32:18;;;;;;;7.00;3.03;;;;;;;10.98;55.62;96226.25;6220371;23;20195;-87
2023/05/17 07:34:43;;;;;;;7.03;3.67;;;;;;;10.28;59.34;96222.72;6222534;23;20181;-87
2023/05/17 07:37:08;;;;;;;7.77;3.07;;;;;;;10.48;59.81;96219.25;6221566;23;20198;-86
2023/05/17 07:39:40;;;;;;;7.53;4.10;;;;;;;11.91;54.54;96220.56;6247922;23;20149;-87
2023/05/17 07:42:06;;;;;;;4.67;3.07;;;;;;;13.72;51.42;96220.81;6221837;23;20209;-86
2023/05/17 07:44:36;;;;;;;4.13;3.07;;;;;;;13.63;49.66;96232.16;6220237;23;20153;-87
2023/05/17 07:47:02;;;;;;;8.83;3.00;;;;;;;12.94;50.98;96230.94;6220401;23;20465;-86
2023/05/17 07:52:16;;;;;;;6.70;2.90;;;;;;;13.34;49.74;96232.38;6240495;22;20204;-86
2023/05/17 07:54:42;;;;;;;5.47;3.00;;;;;;;11.23;55.29;96232.75;6199147;23;20173;-86
2023/05/17 07:57:07;;;;;;;5.77;3.10;;;;;;;9.91;57.73;96240.50;6223299;23;20142;-85
2023/05/17 07:59:36;;;;;;;5.40;3.67;;;;;;;9.89;60.54;96232.00;6197426;23;20171;-84
2023/05/17 08:02:01;;;;;;;7.17;3.30;;;;;;;9.91;60.09;96223.19;6194664;23;20642;-86
2023/05/17 08:04:26;;;;;;;7.83;3.30;;;;;;;9.32;61.85;96231.44;6197044;23;20165;-86
2023/05/17 08:06:54;;;;;;;5.37;3.23;;;;;;;9.21;63.12;96226.31;6196154;23;20200;-85
2023/05/17 08:09:20;;;;;;;6.17;3.27;;;;;;;9.15;64.49;96225.97;6196753;23;20141;-86
2023/05/17 08:11:47;;;;;;;7.80;3.07;;;;;;;9.70;63.37;96231.88;6196873;23;20200;-86
2023/05/17 08:14:22;;;;;;;5.27;3.20;;;;;;;9.38;63.67;96231.91;6197567;23;20177;-85
2023/05/17 08:16:50;;;;;;;7.60;3.47;;;;;;;9.91;61.47;96230.97;6197238;23;20157;-86
2023/05/17 08:19:17;;;;;;;9.07;3.40;;;;;;;10.42;59.82;96231.94;6197714;23;20276;-85
2023/05/17 08:21:42;;;;;;;9.50;3.10;;;;;;;10.65;59.30;96224.78;6195833;23;20246;-86
2023/05/17 08:24:08;;;;;;;6.07;3.30;;;;;;;11.00;56.27;96221.75;6197404;23;20153;-86
2023/05/17 08:26:36;;;;;;;7.23;3.07;;;;;;;11.63;54.07;96232.63;6197172;23;20606;-89
2023/05/17 08:29:04;;;;;;;6.43;2.90;;;;;;;12.16;49.88;96233.00;6197038;23;20153;-85
2023/05/17 08:31:31;;;;;;;5.73;2.83;;;;;;;12.36;50.04;96219.91;6197511;23;20184;-86
2023/05/17 08:33:56;;;;;;;5.73;2.80;;;;;;;11.87;53.30;96225.25;6196718;23;20189;-86
2023/05/17 08:36:24;;;;;;;7.70;3.20;;;;;;;12.91;52.23;96219.97;6196634;23;20482;-86
2023/05/17 08:39:41;;;;;;;;;;;;;;;;;;;;;
2023/05/17 08:42:07;;;;;;;6.30;2.83;;;;;;;13.47;50.76;96226.78;6249070;22;20296;-85
2023/05/17 08:44:35;;;;;;;4.87;2.70;;;;;;;13.47;50.06;96232.00;6251907;22;20165;-86
2023/05/17 08:47:05;;;;;;;10.63;3.03;;;;;;;13.08;50.95;96232.22;6279225;22;20168;-85
2023/05/17 08:49:33;;;;;;;6.03;2.73;;;;;;;12.96;52.17;96228.97;6278737;22;20157;-85
2023/05/17 08:52:00;;;;;;;7.43;2.93;;;;;;;12.72;52.38;96218.25;6278717;22;20396;-86
2023/05/17 08:54:29;;;;;;;5.57;3.10;;;;;;;12.27;53.57;96226.78;6252248;22;20176;-86
2023/05/17 08:57:05;;;;;;;6.67;2.57;;;;;;;11.85;54.28;96223.75;6251308;22;20165;-86
2023/05/17 08:59:32;;;;;;;6.63;2.87;;;;;;;10.88;59.22;96220.22;6252853;22;20149;-86
2023/05/17 09:02:01;;;;;;;5.60;3.13;;;;;;;11.50;55.82;96224.28;6257550;22;20188;-86
2023/05/17 09:04:30;;;;;;;6.57;3.40;;;;;;;11.14;55.81;96220.56;6261346;22;20145;-87
2023/05/17 09:07:01;;;;;;;7.13;2.87;;;;;;;11.10;56.27;96226.97;6251321;22;20420;-86
2023/05/17 09:09:36;;;;;;;5.07;2.83;;;;;;;11.53;54.78;96229.19;6250815;22;20157;-86
2023/05/17 09:12:33;;;;;;;6.73;2.87;;;;;;;11.81;53.68;96230.19;6250928;22;20185;-86
2023/05/17 09:15:22;;;;;;;5.90;2.90;;;;;;;11.46;53.73;96225.50;6252798;22;20156;-86
2023/05/17 09:18:04;;;;;;;6.87;3.37;;;;;;;11.11;55.02;96229.41;6254216;22;20153;-85
2023/05/17 09:20:33;;;;;;;6.27;3.23;;;;;;;10.75;55.52;96230.84;6256066;22;20179;-86
2023/05/17 09:23:00;;;;;;;9.97;3.17;;;;;;;10.99;54.78;96233.09;6256048;22;20156;-85
2023/05/17 09:25:30;;;;;;;6.87;2.80;;;;;;;11.09;55.26;96233.94;6253524;22;20180;-85
2023/05/17 09:28:00;;;;;;;8.57;3.00;;;;;;;11.16;55.12;96231.63;6253214;22;20163;-85
2023/05/17 09:30:32;;;;;;;7.60;3.50;;;;;;;10.75;56.62;96226.47;6252104;22;20234;-87
2023/05/17 09:33:11;;;;;;;7.70;4.03;;;;;;;10.58;56.13;96234.06;6253228;22;20629;-87
2023/05/17 09:35:42;;;;;;;7.23;3.70;;;;;;;10.17;58.54;96241.78;6252412;22;20922;-85
2023/05/17 09:38:14;;;;;;;10.43;3.70;;;;;;;9.84;59.70;96245.38;6252229;22;20171;-86
2023/05/17 09:40:42;;;;;;;8.47;3.77;;;;;;;9.56;62.25;96246.00;6252308;22;20187;-86
2023/05/17 09:43:28;;;;;;;6.80;4.10;;;;;;;10.57;59.73;96238.44;6252559;22;20169;-86
2023/05/17 09:46:00;;;;;;;9.60;4.57;;;;;;;10.72;59.03;96241.50;6251480;22;20168;-87
2023/05/17 09:48:26;;;;;;;9.23;3.90;;;;;;;10.72;58.56;96242.31;6252424;22;20564;-86
2023/05/17 09:50:52;;;;;;;7.47;3.80;;;;;;;10.63;59.62;96252.69;6252504;22;20652;-84
2023/05/17 09:53:38;;;;;;;6.57;3.37;;;;;;;10.49;59.55;96251.25;6252009;22;20176;-86
2023/05/17 09:56:05;;;;;;;7.97;4.17;;;;;;;10.43;59.29;96249.19;6251185;22;20157;-86
2023/05/17 09:58:31;;;;;;;7.40;3.60;;;;;;;10.13;61.21;96244.72;6250112;22;20172;-84
2023/05/17 10:03:34;;;;;;;7.70;3.33;;;;;;;10.61;59.60;96249.41;6251155;23;20640;-85
2023/05/17 10:06:08;;;;;;;6.10;3.33;;;;;;;11.12;58.22;96248.44;6197020;23;20231;-85
2023/05/17 10:08:35;;;;;;;8.83;4.37;;;;;;;10.85;58.63;96247.28;6196635;23;20167;-85
2023/05/17 10:11:08;;;;;;;7.30;3.47;;;;;;;11.13;57.39;96250.06;6196054;23;20264;-86
2023/05/17 10:13:42;;;;;;;7.13;3.97;;;;;;;11.78;54.01;96252.06;6195311;23;20519;-86
2023/05/17 10:16:16;;;;;;;8.30;4.00;;;;;;;11.39;53.51;96250.41;6220439;23;20136;-86
2023/05/17 10:19:01;;;;;;;8.63;3.90;;;;;;;11.98;52.57;96244.25;6196767;23;20153;-86
2023/05/17 10:21:27;;;;;;;8.13;3.60;;;;;;;12.41;50.49;96254.19;6195809;23;20527;-85
2023/05/17 10:23:55;;;;;;;11.30;3.70;;;;;;;12.34;49.99;96248.72;6195725;23;20558;-84
2023/05/17 10:26:21;;;;;;;7.10;3.97;;;;;;;12.92;49.20;96248.50;6194179;23;20161;-86
2023/05/17 10:28:50;;;;;;;7.40;4.27;;;;;;;12.29;49.77;96240.53;6194258;23;20165;-84
2023/05/17 10:31:16;;;;;;;7.17;3.83;;;;;;;12.17;50.25;96239.84;6195883;23;20245;-85
2023/05/17 10:33:46;;;;;;;10.37;4.13;;;;;;;12.35;50.56;96242.53;6195842;23;20312;-84
2023/05/17 10:36:13;;;;;;;7.30;3.50;;;;;;;12.50;48.76;96247.31;6194945;23;20164;-86
2023/05/17 10:38:38;;;;;;;7.10;4.30;;;;;;;12.12;51.45;96255.06;6195263;23;20224;-86
2023/05/17 10:41:04;;;;;;;7.37;4.00;;;;;;;12.27;50.46;96246.81;6196701;23;20268;-85
2023/05/17 10:43:30;;;;;;;6.43;3.83;;;;;;;11.45;50.20;96250.69;6196271;23;20157;-86
2023/05/17 10:45:56;;;;;;;7.77;3.77;;;;;;;11.90;48.83;96250.16;6195480;23;20260;-84
2023/05/17 10:48:22;;;;;;;7.43;4.20;;;;;;;11.80;50.55;96249.34;6203724;23;20141;-87
2023/05/17 10:50:48;;;;;;;11.23;4.63;;;;;;;11.93;50.60;96255.09;6221009;22;20168;-88
2023/05/17 10:53:14;;;;;;;9.17;4.10;;;;;;;11.76;52.29;96255.78;6221597;22;20205;-87
2023/05/17 10:55:53;;;;;;;8.00;3.67;;;;;;;11.92;52.15;96256.03;6247142;22;20156;-89
2023/05/17 10:58:27;;;;;;;9.33;3.93;;;;;;;11.68;53.34;96256.44;6217354;23;20162;-86
2023/05/17 11:00:53;;;;;;;5.23;3.63;;;;;;;11.13;53.33;96250.06;6195653;23;20390;-85
2023/05/17 11:03:27;;;;;;;8.00;4.27;;;;;;;11.27;53.56;96257.50;6195284;23;20162;-86
2023/05/17 11:06:10;;;;;;;11.83;4.27;;;;;;;11.35;53.86;96250.69;6194405;23;20153;-87
2023/05/17 11:08:36;;;;;;;8.33;3.97;;;;;;;11.57;51.96;96248.75;6219782;23;20235;-86
2023/05/17 11:11:10;;;;;;;6.93;3.47;;;;;;;11.47;51.66;96250.53;6195221;23;20173;-86
2023/05/17 11:13:51;;;;;;;7.30;3.77;;;;;;;11.60;52.13;96246.72;6219581;23;20199;-87
2023/05/17 11:16:20;;;;;;;9.70;6.43;;;;;;;11.97;51.88;96253.84;6194008;23;20492;-86
2023/05/17 11:18:50;;;;;;;12.30;5.70;;;;;;;11.99;50.21;96249.31;6193778;23;20958;-86
2023/05/17 11:21:21;;;;;;;6.57;4.50;;;;;;;12.09;50.26;96250.13;6193247;23;20177;-86
2023/05/17 11:23:48;;;;;;;6.60;3.87;;;;;;;11.82;51.69;96253.44;6195420;23;20141;-85
2023/05/17 11:26:43;;;;;;;6.17;3.93;;;;;;;11.51;53.05;96249.31;6193877;23;20611;-86
2023/05/17 11:29:09;;;;;;;8.67;4.30;;;;;;;11.71;51.58;96250.16;6049166;23;20231;-85
2023/05/17 11:31:37;;;;;;;5.37;4.10;;;;;;;11.80;51.95;96254.56;6072150;23;20268;-85
2023/05/17 11:34:03;;;;;;;8.03;3.60;;;;;;;11.48;52.20;96244.38;6071799;23;20176;-87
2023/05/17 11:36:29;;;;;;;5.60;3.60;;;;;;;11.94;51.52;96246.34;6073026;23;20165;-86
2023/05/17 11:39:12;;;;;;;6.87;3.40;;;;;;;12.29;51.15;96250.13;6072262;23;20164;-86
2023/05/17 11:41:41;;;;;;;6.40;3.97;;;;;;;12.15;51.25;96249.56;6072059;23;20184;-86
2023/05/17 11:44:08;;;;;;;7.00;3.60;;;;;;;12.45;51.77;96247.72;6050127;23;20219;-88
2023/05/17 11:46:34;;;;;;;7.87;3.53;;;;;;;11.94;50.25;96256.75;6072618;23;20160;-85
2023/05/17 11:49:00;;;;;;;9.10;3.83;;;;;;;12.20;49.80;96249.19;6071595;23;20171;-88
2023/05/17 11:51:26;;;;;;;5.43;3.40;;;;;;;12.36;49.46;96256.38;6047859;23;20243;-87
2023/05/17 11:53:54;;;;;;;8.37;3.93;;;;;;;12.09;49.24;96250.13;6071093;23;20189;-87
2023/05/17 11:56:21;;;;;;;9.57;4.20;;;;;;;12.23;49.16;96243.69;6047952;23;20173;-85
2023/05/17 11:58:50;;;;;;;6.53;3.17;;;;;;;12.06;49.77;96249.59;6071921;23;20160;-85
2023/05/17 12:01:15;;;;;;;7.17;3.67;;;;;;;12.74;48.93;96235.41;6072400;23;20184;-87
2023/05/17 12:03:59;;;;;;;6.47;3.47;;;;;;;12.35;48.34;96247.75;6073049;23;20151;-86
2023/05/17 12:06:27;;;;;;;7.10;3.03;;;;;;;12.21;48.80;96250.81;6202238;23;20466;-86
2023/05/17 12:08:53;;;;;;;10.30;4.30;;;;;;;11.84;49.68;96246.34;6194183;23;20199;-86
2023/05/17 12:11:20;;;;;;;7.90;3.40;;;;;;;12.12;50.37;96241.25;6195943;23;20177;-85
2023/05/17 12:13:47;;;;;;;7.03;3.50;;;;;;;12.57;50.31;96240.56;6196095;23;20266;-88